createdAt,value
2022-10-05T00:02:39.335Z,7.10
2022-10-05T00:05:52.804Z,7.10
2022-10-05T00:09:05.809Z,7.07
2022-10-05T00:12:26.332Z,7.06
2022-10-05T00:15:38.078Z,7.03
2022-10-05T00:18:52.077Z,7.01
2022-10-05T00:22:10.648Z,7.01
2022-10-05T00:25:25.290Z,7.03
2022-10-05T00:28:38.020Z,7.06
2022-10-05T00:31:49.839Z,7.05
2022-10-05T00:35:03.093Z,7.05
2022-10-05T00:38:15.425Z,7.07
2022-10-05T00:41:33.664Z,7.03
2022-10-05T00:44:51.457Z,7.08
2022-10-05T00:48:09.153Z,7.03
2022-10-05T00:51:33.958Z,6.99
2022-10-05T00:54:50.747Z,7.00
2022-10-05T00:58:11.769Z,7.12
2022-10-05T01:01:28.118Z,7.08
2022-10-05T01:04:45.800Z,7.05
2022-10-05T01:08:03.754Z,7.11
2022-10-05T01:11:22.221Z,7.13
2022-10-05T01:14:39.276Z,7.12
2022-10-05T01:17:56.938Z,7.16
2022-10-05T01:21:13.332Z,7.13
2022-10-05T01:24:46.191Z,7.08
2022-10-05T01:28:07.587Z,7.09
2022-10-05T01:31:25.800Z,7.06
2022-10-05T01:34:44.897Z,6.97
2022-10-05T01:38:04.901Z,7.01
2022-10-05T01:41:25.696Z,7.01
2022-10-05T01:44:41.953Z,6.96
2022-10-05T01:47:57.861Z,6.79
2022-10-05T01:51:18.473Z,6.79
2022-10-05T01:54:39.515Z,6.69
2022-10-05T01:58:03.808Z,6.69
2022-10-05T02:01:21.231Z,6.64
2022-10-05T02:05:01.068Z,6.67
2022-10-05T02:07:58.019Z,6.70
2022-10-05T02:11:15.415Z,6.68
2022-10-05T02:14:32.984Z,6.69
2022-10-05T02:17:50.063Z,6.57
2022-10-05T02:21:04.448Z,6.60
2022-10-05T02:24:21.635Z,6.60
2022-10-05T02:27:39.503Z,6.60
2022-10-05T02:30:56.980Z,6.58
2022-10-05T02:34:36.051Z,6.52
2022-10-05T02:37:58.989Z,6.49
2022-10-05T02:41:17.466Z,6.47
2022-10-05T02:44:35.930Z,6.49
2022-10-05T02:47:54.126Z,6.47
2022-10-05T02:51:12.873Z,6.48
2022-10-05T02:54:38.779Z,6.41
2022-10-05T02:57:58.277Z,6.41
2022-10-05T03:01:16.860Z,6.44
2022-10-05T03:04:40.257Z,6.50
2022-10-05T03:08:00.896Z,6.46
2022-10-05T03:11:19.422Z,6.44
2022-10-05T03:14:37.784Z,6.45
2022-10-05T03:17:57.143Z,6.45
2022-10-05T03:21:19.939Z,6.33
2022-10-05T03:24:51.788Z,6.35
2022-10-05T03:28:09.427Z,6.32
2022-10-05T03:31:27.712Z,6.27
2022-10-05T03:34:46.042Z,6.25
2022-10-05T03:38:06.118Z,6.22
2022-10-05T03:41:24.712Z,6.25
2022-10-05T03:44:46.961Z,6.21
2022-10-05T03:48:05.121Z,6.18
2022-10-05T03:51:22.971Z,6.20
2022-10-05T03:54:39.845Z,6.18
2022-10-05T03:57:53.463Z,6.19
2022-10-05T04:01:11.672Z,6.18
2022-10-05T04:04:31.001Z,6.17
2022-10-05T04:07:52.042Z,6.20
2022-10-05T04:11:08.667Z,6.14
2022-10-05T04:14:24.145Z,6.14
2022-10-05T04:17:42.274Z,6.21
2022-10-05T04:20:58.722Z,6.29
2022-10-05T04:24:15.582Z,6.27
2022-10-05T04:27:33.183Z,6.32
2022-10-05T04:30:49.615Z,6.33
2022-10-05T04:34:07.455Z,6.34
2022-10-05T04:37:25.256Z,6.35
2022-10-05T04:40:49.455Z,6.34
2022-10-05T04:44:16.149Z,6.25
2022-10-05T04:48:15.358Z,6.21
2022-10-05T04:51:42.042Z,6.16
2022-10-05T04:55:03.464Z,6.13
2022-10-05T04:58:23.566Z,6.08
2022-10-05T05:01:59.814Z,6.05
2022-10-05T05:05:31.673Z,6.04
2022-10-05T05:09:20.087Z,6.04
2022-10-05T05:12:40.290Z,6.03
2022-10-05T05:15:57.336Z,6.04
2022-10-05T05:19:43.321Z,6.03
2022-10-05T05:23:02.047Z,5.96
2022-10-05T05:26:21.362Z,6.01
2022-10-05T05:29:41.707Z,6.04
2022-10-05T05:33:05.386Z,6.07
2022-10-05T05:36:54.887Z,6.18
2022-10-05T05:40:16.576Z,6.28
2022-10-05T05:43:35.358Z,6.36
2022-10-05T05:47:03.552Z,6.49
2022-10-05T05:50:23.177Z,6.66
2022-10-05T05:53:41.801Z,6.91
2022-10-05T05:56:59.788Z,7.09
2022-10-05T06:00:23.239Z,7.35
2022-10-05T06:03:41.519Z,7.50
2022-10-05T06:06:58.691Z,7.72
2022-10-05T06:10:20.621Z,7.99
2022-10-05T06:13:38.850Z,8.11
2022-10-05T06:16:56.184Z,8.26
2022-10-05T06:20:14.161Z,8.45
2022-10-05T06:23:32.243Z,8.52
2022-10-05T06:27:15.154Z,8.42
2022-10-05T06:30:27.768Z,8.38
2022-10-05T06:33:55.317Z,8.47
2022-10-05T06:37:14.639Z,8.47
2022-10-05T06:40:41.285Z,8.49
2022-10-05T06:44:03.356Z,8.52
2022-10-05T06:47:32.385Z,9.59
2022-10-05T06:50:49.114Z,10.49
2022-10-05T06:54:30.226Z,11.59
2022-10-05T06:58:22.193Z,12.10
2022-10-05T07:01:51.447Z,12.66
2022-10-05T07:05:30.906Z,12.93
2022-10-05T07:09:07.618Z,13.32
2022-10-05T07:12:44.167Z,13.14
2022-10-05T07:16:03.467Z,13.91
2022-10-05T07:19:29.757Z,14.52
2022-10-05T07:22:58.220Z,14.62
2022-10-05T07:26:17.644Z,14.12
2022-10-05T07:29:37.281Z,13.74
2022-10-05T07:32:59.226Z,13.47
2022-10-05T07:36:32.588Z,13.38
2022-10-05T07:40:00.239Z,13.13
2022-10-05T07:43:21.988Z,13.01
2022-10-05T07:46:42.646Z,13.22
2022-10-05T07:50:01.805Z,13.05
2022-10-05T07:53:22.604Z,13.24
2022-10-05T07:56:40.855Z,13.42
2022-10-05T08:00:00.380Z,13.51
2022-10-05T08:03:18.464Z,13.89
2022-10-05T08:06:50.983Z,13.84
2022-10-05T08:10:10.280Z,14.18
2022-10-05T08:13:27.909Z,14.49
2022-10-05T08:16:43.727Z,15.09
2022-10-05T08:20:03.242Z,15.51
2022-10-05T08:23:24.299Z,15.97
2022-10-05T08:26:42.878Z,16.26
2022-10-05T08:30:03.141Z,16.84
2022-10-05T08:33:20.959Z,17.55
2022-10-05T08:36:42.355Z,17.85
2022-10-05T08:40:03.647Z,18.11
2022-10-05T08:43:39.782Z,18.61
2022-10-05T08:47:25.635Z,18.76
2022-10-05T08:50:59.803Z,19.45
2022-10-05T08:54:47.749Z,18.78
2022-10-05T08:58:39.687Z,18.96
2022-10-05T09:02:09.956Z,17.80
2022-10-05T09:05:41.714Z,17.66
2022-10-05T09:09:25.823Z,17.54
2022-10-05T09:13:20.476Z,17.18
2022-10-05T09:16:55.781Z,17.06
2022-10-05T09:20:22.242Z,17.21
2022-10-05T09:23:45.114Z,17.28
2022-10-05T09:27:08.918Z,17.35
2022-10-05T09:30:49.150Z,17.14
2022-10-05T09:34:38.910Z,17.12
2022-10-05T09:38:15.610Z,17.31
2022-10-05T09:42:13.821Z,17.48
2022-10-05T09:45:43.798Z,17.70
2022-10-05T09:49:23.995Z,17.69
2022-10-05T09:53:08.837Z,17.48
2022-10-05T09:56:35.210Z,17.44
2022-10-05T10:00:34.396Z,17.26
2022-10-05T10:04:22.261Z,17.50
2022-10-05T10:08:06.348Z,17.74
2022-10-05T10:11:44.779Z,17.74
2022-10-05T10:15:35.510Z,17.86
2022-10-05T10:19:27.888Z,17.82
2022-10-05T10:23:13.033Z,17.80
2022-10-05T10:27:04.463Z,17.98
2022-10-05T10:30:51.775Z,18.02
2022-10-05T10:34:33.323Z,17.93
2022-10-05T10:38:36.424Z,17.98
2022-10-05T10:42:31.110Z,17.89
2022-10-05T10:45:54.312Z,17.89
2022-10-05T10:49:16.858Z,17.86
2022-10-05T10:52:45.000Z,17.88
2022-10-05T10:56:06.462Z,18.28
2022-10-05T11:00:21.151Z,18.84
2022-10-05T11:04:14.147Z,19.22
2022-10-05T11:08:03.478Z,19.21
2022-10-05T11:12:07.933Z,19.19
2022-10-05T11:16:01.756Z,19.31
2022-10-05T11:19:59.644Z,19.11
2022-10-05T11:23:06.560Z,19.08
2022-10-05T11:26:48.503Z,19.09
2022-10-05T11:30:17.955Z,19.03
2022-10-05T11:34:36.361Z,19.17
2022-10-05T11:38:22.685Z,19.38
2022-10-05T11:42:51.390Z,19.42
2022-10-05T11:46:17.842Z,19.29
2022-10-05T11:49:43.082Z,19.24
2022-10-05T11:53:00.218Z,19.20
2022-10-05T11:56:20.151Z,18.97
2022-10-05T11:59:39.477Z,19.03
2022-10-05T12:03:24.857Z,19.05
2022-10-05T12:06:59.568Z,18.83
2022-10-05T12:10:32.653Z,18.81
2022-10-05T12:13:51.573Z,18.72
2022-10-05T12:17:08.567Z,18.73
2022-10-05T12:20:21.464Z,18.86
2022-10-05T12:23:38.080Z,18.80
2022-10-05T12:26:54.770Z,18.94
2022-10-05T12:30:15.943Z,18.92
2022-10-05T12:33:33.334Z,19.06
2022-10-05T12:37:05.610Z,19.12
2022-10-05T12:40:09.723Z,19.16
2022-10-05T12:43:28.834Z,19.22
2022-10-05T12:46:49.666Z,19.19
2022-10-05T12:50:22.240Z,19.25
2022-10-05T12:53:48.576Z,19.29
2022-10-05T12:57:06.008Z,19.30
2022-10-05T13:00:23.397Z,19.33
2022-10-05T13:03:41.396Z,19.39
2022-10-05T13:07:02.710Z,19.38
2022-10-05T13:10:34.840Z,19.43
2022-10-05T13:13:57.201Z,19.37
2022-10-05T13:17:14.651Z,19.46
2022-10-05T13:20:32.965Z,19.48
2022-10-05T13:23:57.562Z,19.41
2022-10-05T13:27:15.852Z,19.36
2022-10-05T13:30:28.544Z,19.29
2022-10-05T13:34:01.557Z,19.19
2022-10-05T13:37:21.676Z,19.14
2022-10-05T13:40:39.339Z,19.11
2022-10-05T13:44:00.647Z,19.09
2022-10-05T13:47:19.315Z,19.03
2022-10-05T13:50:35.430Z,18.95
2022-10-05T13:53:56.185Z,18.89
2022-10-05T13:57:22.107Z,18.83
2022-10-05T14:00:36.073Z,18.73
2022-10-05T14:03:56.103Z,18.68
2022-10-05T14:07:22.008Z,18.65
2022-10-05T14:10:44.620Z,18.60
2022-10-05T14:13:57.378Z,18.52
2022-10-05T14:17:17.248Z,18.47
2022-10-05T14:20:34.668Z,18.48
2022-10-05T14:23:46.693Z,18.44
2022-10-05T14:27:02.999Z,18.39
2022-10-05T14:30:30.386Z,18.36
2022-10-05T14:33:43.359Z,18.28
2022-10-05T14:37:02.886Z,18.26
2022-10-05T14:40:35.112Z,18.20
2022-10-05T14:44:19.757Z,18.14
2022-10-05T14:47:50.979Z,18.06
2022-10-05T14:54:10.897Z,17.91
2022-10-05T15:00:59.325Z,17.77
2022-10-05T15:07:24.898Z,17.55
2022-10-05T15:16:42.516Z,17.38
2022-10-05T15:20:04.343Z,17.25
2022-10-05T15:23:28.161Z,17.24
2022-10-05T15:26:55.007Z,17.14
2022-10-05T15:33:19.771Z,17.04
2022-10-05T15:36:37.704Z,16.99
2022-10-05T15:40:06.189Z,16.94
2022-10-05T15:43:23.155Z,16.84
2022-10-05T15:46:47.673Z,16.76
2022-10-05T15:50:10.018Z,16.60
2022-10-05T15:53:27.712Z,16.46
2022-10-05T15:56:43.834Z,16.35
2022-10-05T16:00:06.243Z,16.27
2022-10-05T16:03:27.289Z,16.18
2022-10-05T16:12:58.654Z,15.93
2022-10-05T16:16:23.564Z,15.79
2022-10-05T16:19:43.284Z,15.70
2022-10-05T16:29:03.025Z,15.50
2022-10-05T16:32:20.173Z,15.40
2022-10-05T18:07:05.698Z,13.42
2022-10-05T18:10:34.060Z,13.36
2022-10-05T18:13:51.684Z,13.26
2022-10-05T18:17:09.615Z,13.19
2022-10-05T18:20:38.503Z,13.09
2022-10-05T18:23:58.525Z,12.93
2022-10-05T18:27:30.762Z,12.90
2022-10-05T18:31:04.414Z,12.91
2022-10-05T18:34:34.622Z,12.91
2022-10-05T18:37:57.499Z,12.81
2022-10-05T18:41:15.915Z,12.74
2022-10-05T18:44:43.546Z,12.66
2022-10-05T18:48:05.209Z,12.63
2022-10-05T18:51:24.427Z,12.62
2022-10-05T18:54:51.137Z,12.68
2022-10-05T18:58:19.910Z,12.66
2022-10-05T19:01:57.452Z,12.57
2022-10-05T19:05:46.493Z,12.52
2022-10-05T19:08:43.687Z,12.48
2022-10-05T19:12:04.658Z,12.41
2022-10-05T19:15:26.250Z,12.40
2022-10-05T19:18:56.311Z,12.37
2022-10-05T19:22:14.219Z,12.32
2022-10-05T19:25:47.605Z,12.22
2022-10-05T19:29:07.487Z,12.14
2022-10-05T19:32:30.280Z,12.10
2022-10-05T19:35:58.483Z,12.03
2022-10-05T19:39:16.889Z,11.95
2022-10-05T19:42:57.611Z,11.90
2022-10-05T19:46:19.314Z,11.84
2022-10-05T19:49:51.888Z,11.85
2022-10-05T19:53:17.311Z,11.86
2022-10-05T19:56:31.573Z,11.84
2022-10-05T19:59:43.465Z,11.78
2022-10-05T20:02:55.303Z,11.74
2022-10-05T20:06:10.327Z,11.70
2022-10-05T20:09:29.646Z,11.68
2022-10-05T20:12:59.943Z,11.66
2022-10-05T20:16:48.838Z,11.66
2022-10-05T20:20:15.385Z,11.70
2022-10-05T20:23:30.338Z,11.56
2022-10-05T20:27:15.802Z,11.50
2022-10-05T20:30:29.262Z,11.43
2022-10-05T20:33:42.191Z,11.40
2022-10-05T20:36:54.247Z,11.39
2022-10-05T20:40:06.315Z,11.35
2022-10-05T20:43:18.299Z,11.32
2022-10-05T20:46:31.021Z,11.32
2022-10-05T20:49:45.057Z,11.38
2022-10-05T20:52:57.307Z,11.45
2022-10-05T20:56:09.244Z,11.45
2022-10-05T20:59:21.513Z,11.44
2022-10-05T21:02:33.297Z,11.42
2022-10-05T21:05:45.000Z,11.40
2022-10-05T21:08:56.818Z,11.47
2022-10-05T21:12:08.502Z,11.49
2022-10-05T21:15:26.877Z,11.50
2022-10-05T21:18:38.707Z,11.48
2022-10-05T21:21:51.895Z,11.52
2022-10-05T21:25:03.619Z,11.47
2022-10-05T21:28:16.107Z,11.38
2022-10-05T21:31:28.249Z,11.25
2022-10-05T21:34:40.310Z,11.14
2022-10-05T21:37:52.055Z,11.05
2022-10-05T21:41:03.735Z,11.04
2022-10-05T21:44:15.656Z,10.99
2022-10-05T21:47:27.477Z,10.89
2022-10-05T21:50:39.973Z,10.78
2022-10-05T21:53:56.095Z,10.71
2022-10-05T21:57:08.228Z,10.63
2022-10-05T22:00:21.316Z,10.53
2022-10-05T22:03:33.486Z,10.43
2022-10-05T22:06:45.396Z,10.43
2022-10-05T22:09:57.658Z,10.50
2022-10-05T22:13:10.634Z,10.49
2022-10-05T22:16:26.789Z,10.44
2022-10-05T22:19:38.764Z,10.34
2022-10-05T22:22:51.733Z,10.29
2022-10-05T22:26:03.961Z,10.30
2022-10-05T22:29:15.916Z,10.33
2022-10-05T22:32:27.863Z,10.34
2022-10-05T22:35:41.147Z,10.33
2022-10-05T22:38:52.792Z,10.31
2022-10-05T22:42:05.795Z,10.29
2022-10-05T22:45:18.254Z,10.26
2022-10-05T22:48:30.392Z,10.26
2022-10-05T22:51:42.586Z,10.25
2022-10-05T22:54:54.430Z,10.18
2022-10-05T22:58:07.037Z,10.16
2022-10-05T23:01:21.379Z,10.16
2022-10-05T23:04:33.163Z,10.10
2022-10-05T23:07:47.362Z,10.04
2022-10-05T23:10:59.155Z,10.00
2022-10-05T23:14:10.979Z,9.93
2022-10-05T23:17:27.016Z,9.88
2022-10-05T23:20:40.256Z,9.82
2022-10-05T23:23:54.342Z,9.68
2022-10-05T23:27:06.069Z,9.63
2022-10-05T23:30:19.460Z,9.57
2022-10-05T23:33:31.182Z,9.56
2022-10-05T23:36:42.981Z,9.54
2022-10-05T23:39:54.583Z,9.51
2022-10-05T23:43:06.600Z,9.38
2022-10-05T23:46:19.142Z,9.28
2022-10-05T23:49:30.929Z,9.19
2022-10-05T23:52:43.487Z,9.07
2022-10-05T23:55:57.982Z,9.02
2022-10-05T23:59:09.733Z,9.06
